AAL847 KPHL-KCLT
Flight info
| Callsign | AAL847 |
|---|---|
| Flight time | N/A |
| Altitude | 38000 |
| Route | STOEN Q75 GVE AIROW CHSLY6 |
| Aircraft | A21N/M-SDE2E3FGHIJ1RWXY/LB1 |
Departure
| Time | N/A |
|---|---|
| Airport | Philadelphia International Airport (KPHL) |
Arrival
| Time | 2026-05-04 19:57 |
|---|---|
| Airport | Charlotte Douglas International Airport (KCLT) |
| Time | Latitude | Longitude | Altitude | Speed | Heading |
|---|---|---|---|---|---|
| 2026-05-04 19:06 | 38.85451 | -77.17474 | 37197 ft | 419 kts | 230° |
| 2026-05-04 19:06 | 38.83366 | -77.20145 | 37351 ft | 420 kts | 230° |
| 2026-05-04 19:07 | 38.81325 | -77.22757 | 37486 ft | 421 kts | 230° |
| 2026-05-04 19:07 | 38.80008 | -77.24445 | 37579 ft | 421 kts | 230° |
| 2026-05-04 19:07 | 38.77587 | -77.27539 | 37757 ft | 421 kts | 230° |
| 2026-05-04 19:08 | 38.75512 | -77.30189 | 37895 ft | 422 kts | 230° |
| 2026-05-04 19:08 | 38.73450 | -77.32808 | 37940 ft | 423 kts | 229° |
| 2026-05-04 19:08 | 38.69104 | -77.37878 | 37956 ft | 424 kts | 227° |
| 2026-05-04 19:09 | 38.64737 | -77.42921 | 37957 ft | 424 kts | 227° |
| 2026-05-04 19:09 | 38.60350 | -77.47982 | 37965 ft | 424 kts | 227° |
| 2026-05-04 19:10 | 38.55994 | -77.52998 | 37969 ft | 424 kts | 227° |
| 2026-05-04 19:10 | 38.51605 | -77.58044 | 37970 ft | 425 kts | 227° |
| 2026-05-04 19:11 | 38.47237 | -77.63056 | 37975 ft | 424 kts | 227° |
| 2026-05-04 19:11 | 38.42844 | -77.68087 | 37977 ft | 425 kts | 227° |
| 2026-05-04 19:12 | 38.36265 | -77.75611 | 37973 ft | 423 kts | 227° |
| 2026-05-04 19:13 | 38.31907 | -77.80585 | 37962 ft | 424 kts | 227° |
| 2026-05-04 19:13 | 38.27503 | -77.85603 | 37966 ft | 424 kts | 227° |
| 2026-05-04 19:14 | 38.23128 | -77.90581 | 37969 ft | 424 kts | 227° |
| 2026-05-04 19:14 | 38.18750 | -77.95551 | 37976 ft | 423 kts | 227° |
| 2026-05-04 19:15 | 38.14359 | -78.00534 | 37980 ft | 423 kts | 227° |
| 2026-05-04 19:15 | 38.09980 | -78.05492 | 37982 ft | 422 kts | 227° |
| 2026-05-04 19:16 | 38.05624 | -78.10419 | 37987 ft | 423 kts | 227° |
| 2026-05-04 19:16 | 38.01305 | -78.15463 | 37986 ft | 420 kts | 230° |
| 2026-05-04 19:17 | 37.97401 | -78.20857 | 37994 ft | 418 kts | 233° |
| 2026-05-04 19:17 | 37.93545 | -78.26345 | 37991 ft | 417 kts | 233° |
| 2026-05-04 19:18 | 37.89707 | -78.31802 | 37982 ft | 416 kts | 233° |
| 2026-05-04 19:18 | 37.85849 | -78.37283 | 37978 ft | 416 kts | 233° |
| 2026-05-04 19:19 | 37.82028 | -78.42696 | 37980 ft | 415 kts | 233° |
| 2026-05-04 19:19 | 37.78177 | -78.48146 | 37972 ft | 414 kts | 234° |
| 2026-05-04 19:20 | 37.74376 | -78.53514 | 37972 ft | 414 kts | 233° |
| 2026-05-04 19:20 | 37.70535 | -78.58932 | 37982 ft | 413 kts | 233° |
| 2026-05-04 19:21 | 37.66700 | -78.64333 | 37980 ft | 413 kts | 234° |
| 2026-05-04 19:21 | 37.62874 | -78.69709 | 37987 ft | 413 kts | 233° |
| 2026-05-04 19:22 | 37.59042 | -78.75089 | 37987 ft | 412 kts | 233° |
| 2026-05-04 19:22 | 37.55220 | -78.80441 | 37992 ft | 411 kts | 233° |
| 2026-05-04 19:23 | 37.51408 | -78.85774 | 37997 ft | 411 kts | 233° |
| 2026-05-04 19:23 | 37.47613 | -78.91077 | 38003 ft | 411 kts | 233° |
| 2026-05-04 19:24 | 37.43799 | -78.96399 | 38009 ft | 411 kts | 233° |
| 2026-05-04 19:24 | 37.39973 | -79.01727 | 38003 ft | 409 kts | 233° |
| 2026-05-04 19:25 | 37.36172 | -79.07014 | 38005 ft | 409 kts | 233° |
| 2026-05-04 19:25 | 37.32343 | -79.12330 | 38007 ft | 410 kts | 233° |
| 2026-05-04 19:26 | 37.28539 | -79.17602 | 38016 ft | 410 kts | 233° |
| 2026-05-04 19:26 | 37.24475 | -79.22643 | 38012 ft | 413 kts | 227° |
| 2026-05-04 19:27 | 37.19992 | -79.27142 | 38010 ft | 418 kts | 222° |
| 2026-05-04 19:27 | 37.15270 | -79.31411 | 38007 ft | 417 kts | 222° |
| 2026-05-04 19:28 | 37.10595 | -79.35632 | 38002 ft | 416 kts | 222° |
| 2026-05-04 19:28 | 37.05919 | -79.39844 | 38005 ft | 415 kts | 222° |
| 2026-05-04 19:29 | 37.01216 | -79.44061 | 37997 ft | 416 kts | 221° |
| 2026-05-04 19:29 | 36.96421 | -79.48123 | 38000 ft | 417 kts | 220° |
| 2026-05-04 19:30 | 36.91609 | -79.52161 | 37712 ft | 420 kts | 221° |
| 2026-05-04 19:30 | 36.89186 | -79.54202 | 37037 ft | 419 kts | 221° |
| 2026-05-04 19:30 | 36.86794 | -79.56215 | 36490 ft | 416 kts | 221° |
| 2026-05-04 19:30 | 36.84405 | -79.58224 | 35963 ft | 415 kts | 221° |
| 2026-05-04 19:31 | 36.81996 | -79.60251 | 35342 ft | 417 kts | 221° |
| 2026-05-04 19:31 | 36.79588 | -79.62278 | 34652 ft | 420 kts | 221° |
| 2026-05-04 19:31 | 36.77181 | -79.64296 | 33861 ft | 421 kts | 221° |
| 2026-05-04 19:31 | 36.74757 | -79.66330 | 33113 ft | 422 kts | 220° |
| 2026-05-04 19:32 | 36.72294 | -79.68393 | 32336 ft | 423 kts | 220° |
| 2026-05-04 19:32 | 36.69867 | -79.70425 | 31597 ft | 424 kts | 220° |
| 2026-05-04 19:32 | 36.67430 | -79.72463 | 30859 ft | 424 kts | 219° |
| 2026-05-04 19:32 | 36.64991 | -79.74499 | 30355 ft | 419 kts | 220° |
| 2026-05-04 19:33 | 36.62601 | -79.76488 | 29885 ft | 413 kts | 220° |
| 2026-05-04 19:33 | 36.60224 | -79.78471 | 29413 ft | 408 kts | 219° |
| 2026-05-04 19:33 | 36.57882 | -79.80424 | 28925 ft | 404 kts | 220° |
| 2026-05-04 19:33 | 36.55564 | -79.82357 | 28420 ft | 401 kts | 219° |
| 2026-05-04 19:34 | 36.53272 | -79.84269 | 27948 ft | 397 kts | 219° |
| 2026-05-04 19:34 | 36.51004 | -79.86156 | 27461 ft | 393 kts | 219° |
| 2026-05-04 19:34 | 36.48755 | -79.88025 | 26985 ft | 390 kts | 219° |
| 2026-05-04 19:34 | 36.46493 | -79.89902 | 26503 ft | 387 kts | 219° |
| 2026-05-04 19:35 | 36.44289 | -79.91731 | 26039 ft | 384 kts | 219° |
| 2026-05-04 19:35 | 36.42065 | -79.93577 | 25585 ft | 380 kts | 219° |
| 2026-05-04 19:35 | 36.39877 | -79.95391 | 25118 ft | 378 kts | 219° |
| 2026-05-04 19:35 | 36.37713 | -79.97185 | 24631 ft | 377 kts | 219° |
| 2026-05-04 19:36 | 36.35536 | -79.98988 | 24163 ft | 374 kts | 218° |
| 2026-05-04 19:36 | 36.33385 | -80.00766 | 24017 ft | 367 kts | 218° |
| 2026-05-04 19:36 | 36.31271 | -80.02512 | 23565 ft | 371 kts | 218° |
| 2026-05-04 19:36 | 36.29102 | -80.04306 | 22737 ft | 378 kts | 218° |
| 2026-05-04 19:37 | 36.26913 | -80.06111 | 22209 ft | 377 kts | 218° |
| 2026-05-04 19:37 | 36.24764 | -80.07877 | 21801 ft | 373 kts | 218° |
| 2026-05-04 19:37 | 36.22604 | -80.09653 | 21267 ft | 372 kts | 218° |
| 2026-05-04 19:37 | 36.20448 | -80.11424 | 20787 ft | 370 kts | 218° |
| 2026-05-04 19:38 | 36.18335 | -80.13159 | 20332 ft | 367 kts | 218° |
| 2026-05-04 19:38 | 36.16214 | -80.14902 | 19875 ft | 364 kts | 218° |
| 2026-05-04 19:38 | 36.14100 | -80.16639 | 19421 ft | 361 kts | 218° |
| 2026-05-04 19:38 | 36.12021 | -80.18346 | 18968 ft | 359 kts | 218° |
| 2026-05-04 19:39 | 36.09943 | -80.20052 | 18511 ft | 356 kts | 218° |
| 2026-05-04 19:39 | 36.07899 | -80.21732 | 18069 ft | 354 kts | 218° |
| 2026-05-04 19:39 | 36.05859 | -80.23405 | 17623 ft | 351 kts | 218° |
| 2026-05-04 19:39 | 36.03842 | -80.25056 | 17180 ft | 349 kts | 219° |
| 2026-05-04 19:40 | 36.01811 | -80.26718 | 16756 ft | 345 kts | 219° |
| 2026-05-04 19:40 | 35.99829 | -80.28338 | 16483 ft | 337 kts | 219° |
| 2026-05-04 19:40 | 35.97925 | -80.29893 | 16217 ft | 330 kts | 219° |
| 2026-05-04 19:40 | 35.96019 | -80.31451 | 15752 ft | 329 kts | 219° |
| 2026-05-04 19:41 | 35.94120 | -80.33004 | 15318 ft | 327 kts | 219° |
| 2026-05-04 19:41 | 35.92222 | -80.34553 | 14900 ft | 325 kts | 219° |
| 2026-05-04 19:41 | 35.90336 | -80.36093 | 14491 ft | 323 kts | 219° |
| 2026-05-04 19:41 | 35.88479 | -80.37609 | 14077 ft | 321 kts | 219° |
| 2026-05-04 19:42 | 35.86623 | -80.39120 | 13699 ft | 317 kts | 220° |
| 2026-05-04 19:42 | 35.84814 | -80.40586 | 13572 ft | 305 kts | 220° |
| 2026-05-04 19:42 | 35.83106 | -80.42062 | 13391 ft | 299 kts | 229° |
| 2026-05-04 19:42 | 35.81733 | -80.44016 | 13157 ft | 308 kts | 239° |
| 2026-05-04 19:43 | 35.80477 | -80.46172 | 12905 ft | 310 kts | 240° |
| 2026-05-04 19:43 | 35.79229 | -80.48327 | 12659 ft | 310 kts | 239° |
| 2026-05-04 19:43 | 35.77952 | -80.50486 | 12408 ft | 309 kts | 239° |
| 2026-05-04 19:43 | 35.76683 | -80.52593 | 12165 ft | 309 kts | 238° |
| 2026-05-04 19:44 | 35.75390 | -80.54711 | 11927 ft | 307 kts | 238° |
| 2026-05-04 19:44 | 35.74119 | -80.56777 | 11695 ft | 306 kts | 238° |
| 2026-05-04 19:44 | 35.72838 | -80.58853 | 11474 ft | 305 kts | 237° |
| 2026-05-04 19:44 | 35.71540 | -80.60950 | 11203 ft | 305 kts | 237° |
| 2026-05-04 19:45 | 35.70272 | -80.62996 | 10865 ft | 303 kts | 237° |
| 2026-05-04 19:45 | 35.69003 | -80.65037 | 10491 ft | 301 kts | 236° |
| 2026-05-04 19:45 | 35.67722 | -80.67094 | 10136 ft | 298 kts | 236° |
| 2026-05-04 19:45 | 35.66486 | -80.69078 | 10035 ft | 284 kts | 236° |
| 2026-05-04 19:46 | 35.65308 | -80.70963 | 9975 ft | 270 kts | 236° |
| 2026-05-04 19:46 | 35.64156 | -80.72814 | 9975 ft | 276 kts | 236° |
| 2026-05-04 19:46 | 35.62991 | -80.74684 | 9969 ft | 276 kts | 236° |
| 2026-05-04 19:46 | 35.61831 | -80.76544 | 9775 ft | 273 kts | 236° |
| 2026-05-04 19:47 | 35.60687 | -80.78381 | 9342 ft | 274 kts | 236° |
| 2026-05-04 19:47 | 35.59529 | -80.80239 | 8930 ft | 274 kts | 235° |
| 2026-05-04 19:47 | 35.58379 | -80.82080 | 8542 ft | 273 kts | 235° |
| 2026-05-04 19:47 | 35.57230 | -80.83919 | 8157 ft | 272 kts | 234° |
| 2026-05-04 19:48 | 35.56070 | -80.85774 | 7771 ft | 271 kts | 234° |
| 2026-05-04 19:48 | 35.54930 | -80.87595 | 7396 ft | 270 kts | 234° |
| 2026-05-04 19:48 | 35.53790 | -80.89414 | 7004 ft | 269 kts | 233° |
| 2026-05-04 19:48 | 35.52661 | -80.91213 | 6687 ft | 265 kts | 233° |
| 2026-05-04 19:49 | 35.51550 | -80.92984 | 6431 ft | 259 kts | 233° |
| 2026-05-04 19:49 | 35.50455 | -80.94717 | 6202 ft | 253 kts | 230° |
| 2026-05-04 19:49 | 35.49105 | -80.95985 | 5958 ft | 247 kts | 200° |
| 2026-05-04 19:49 | 35.47387 | -80.96172 | 5618 ft | 248 kts | 176° |
| 2026-05-04 19:50 | 35.45691 | -80.95892 | 5282 ft | 248 kts | 173° |
| 2026-05-04 19:50 | 35.45419 | -80.95841 | 5228 ft | 248 kts | 173° |
| 2026-05-04 19:51 | 35.43245 | -80.95489 | 4796 ft | 247 kts | 175° |
| 2026-05-04 19:51 | 35.41533 | -80.95277 | 4455 ft | 246 kts | 176° |
| 2026-05-04 19:52 | 35.39872 | -80.95106 | 4069 ft | 237 kts | 177° |
| 2026-05-04 19:52 | 35.38250 | -80.94960 | 3698 ft | 228 kts | 177° |
| 2026-05-04 19:53 | 35.35755 | -80.94749 | 3222 ft | 211 kts | 178° |
| 2026-05-04 19:53 | 35.34309 | -80.94627 | 2980 ft | 205 kts | 177° |
| 2026-05-04 19:54 | 35.32937 | -80.94511 | 2789 ft | 190 kts | 177° |
| 2026-05-04 19:54 | 35.31649 | -80.94401 | 2509 ft | 180 kts | 177° |
| 2026-05-04 19:54 | 35.30447 | -80.94298 | 2276 ft | 167 kts | 177° |
| 2026-05-04 19:54 | 35.29325 | -80.94202 | 2048 ft | 154 kts | 177° |
| 2026-05-04 19:55 | 35.28299 | -80.94114 | 1835 ft | 142 kts | 177° |
| 2026-05-04 19:55 | 35.27339 | -80.94031 | 1667 ft | 135 kts | 177° |
| 2026-05-04 19:55 | 35.26405 | -80.93951 | 1514 ft | 134 kts | 178° |
| 2026-05-04 19:55 | 35.25474 | -80.93873 | 1337 ft | 133 kts | 176° |
| 2026-05-04 19:56 | 35.24543 | -80.93795 | 1177 ft | 134 kts | 176° |
| 2026-05-04 19:56 | 35.23607 | -80.93716 | 1024 ft | 133 kts | 176° |
| 2026-05-04 19:56 | 35.22678 | -80.93633 | 838 ft | 133 kts | 176° |
| 2026-05-04 19:56 | 35.21785 | -80.93555 | 755 ft | 118 kts | 176° |
| 2026-05-04 19:57 | 35.21150 | -80.93504 | 755 ft | 48 kts | 180° |
| 2026-05-04 19:57 | 35.20950 | -80.93549 | 755 ft | 13 kts | 228° |
| 2026-05-04 19:57 | 35.20983 | -80.93622 | 755 ft | 13 kts | 352° |
| 2026-05-04 19:57 | 35.21077 | -80.93630 | 755 ft | 13 kts | 356° |
| 2026-05-04 19:58 | 35.21174 | -80.93639 | 754 ft | 14 kts | 355° |
| 2026-05-04 19:58 | 35.21276 | -80.93647 | 755 ft | 14 kts | 356° |
| 2026-05-04 19:58 | 35.21379 | -80.93655 | 755 ft | 15 kts | 356° |
| 2026-05-04 19:58 | 35.21450 | -80.93713 | 755 ft | 12 kts | 317° |
| 2026-05-04 19:59 | 35.21515 | -80.93786 | 754 ft | 13 kts | 317° |
| 2026-05-04 19:59 | 35.21585 | -80.93862 | 755 ft | 13 kts | 318° |
| 2026-05-04 19:59 | 35.21659 | -80.93940 | 755 ft | 14 kts | 319° |
| 2026-05-04 19:59 | 35.21733 | -80.94020 | 755 ft | 14 kts | 318° |
| 2026-05-04 20:00 | 35.21723 | -80.94092 | 755 ft | 10 kts | 226° |
| 2026-05-04 20:00 | 35.21688 | -80.94154 | 754 ft | 7 kts | 284° |
| 2026-05-04 20:00 | 35.21733 | -80.94196 | 754 ft | 7 kts | 336° |
| 2026-05-04 20:00 | 35.21748 | -80.94202 | 754 ft | 0 kts | 342° |